createdAt,value
2017-06-11T00:00:00.152Z,0
2017-06-11T00:01:00.811Z,0
2017-06-11T00:02:00.447Z,0
2017-06-11T00:03:00.287Z,0
2017-06-11T00:04:00.315Z,0
2017-06-11T00:05:00.342Z,0
2017-06-11T00:06:00.390Z,0
2017-06-11T00:07:00.960Z,0
2017-06-11T00:08:00.426Z,0
2017-06-11T00:09:00.466Z,0
2017-06-11T00:10:00.514Z,0
2017-06-11T00:11:00.522Z,0
2017-06-11T00:12:00.566Z,0
2017-06-11T00:13:00.587Z,0
2017-06-11T00:14:00.633Z,0
2017-06-11T00:15:00.679Z,0
2017-06-11T00:16:00.756Z,0
2017-06-11T00:17:00.760Z,0
2017-06-11T00:18:00.792Z,0
2017-06-11T00:19:00.829Z,0
2017-06-11T00:20:00.847Z,0
2017-06-11T00:21:01.108Z,0
2017-06-11T00:22:00.957Z,0
2017-06-11T00:23:00.980Z,0
2017-06-11T00:24:01.476Z,0
2017-06-11T00:25:01.200Z,0
2017-06-11T00:26:01.093Z,0
2017-06-11T00:27:01.117Z,0
2017-06-11T00:28:01.392Z,0
2017-06-11T00:29:01.195Z,0
2017-06-11T00:30:01.247Z,0
2017-06-11T00:31:01.868Z,0
2017-06-11T00:32:01.297Z,0
2017-06-11T00:33:01.332Z,0
2017-06-11T00:34:01.360Z,0
2017-06-11T00:35:01.393Z,0
2017-06-11T00:36:01.433Z,0
2017-06-11T00:37:01.460Z,0
2017-06-11T00:38:01.491Z,0
2017-06-11T00:39:01.553Z,0
2017-06-11T00:40:01.572Z,0
2017-06-11T00:41:01.611Z,0
2017-06-11T00:42:01.632Z,0
2017-06-11T00:43:01.670Z,0
2017-06-11T00:44:01.687Z,0
2017-06-11T00:45:01.736Z,0
2017-06-11T00:46:01.758Z,0
2017-06-11T00:47:01.822Z,0
2017-06-11T00:48:01.835Z,0
2017-06-11T00:49:01.885Z,0
2017-06-11T00:50:01.932Z,0
2017-06-11T00:51:01.960Z,0
2017-06-11T00:52:01.967Z,0
2017-06-11T00:53:02.038Z,0
2017-06-11T00:54:02.073Z,0
2017-06-11T00:55:02.088Z,0
2017-06-11T00:56:02.131Z,0
2017-06-11T00:57:02.172Z,0
2017-06-11T00:58:02.199Z,0
2017-06-11T00:59:02.252Z,0
2017-06-11T01:00:02.276Z,0
2017-06-11T01:01:02.311Z,0
2017-06-11T01:02:02.337Z,0
2017-06-11T01:03:02.366Z,0
2017-06-11T01:04:02.410Z,0
2017-06-11T01:05:02.454Z,0
2017-06-11T01:06:02.673Z,0
2017-06-11T01:07:02.529Z,0
2017-06-11T01:08:02.540Z,0
2017-06-11T01:09:02.599Z,0
2017-06-11T01:10:02.623Z,0
2017-06-11T01:11:02.662Z,0
2017-06-11T01:12:02.701Z,0
2017-06-11T01:13:02.735Z,0
2017-06-11T01:14:02.771Z,0
2017-06-11T01:15:02.806Z,0
2017-06-11T01:16:02.836Z,0
2017-06-11T01:17:02.851Z,0
2017-06-11T01:18:02.908Z,0
2017-06-11T01:19:02.937Z,0
2017-06-11T01:20:02.976Z,0
2017-06-11T01:21:03.007Z,0
2017-06-11T01:22:03.032Z,0
2017-06-11T01:23:03.063Z,0
2017-06-11T01:24:03.127Z,0
2017-06-11T01:25:03.181Z,0
2017-06-11T01:26:03.194Z,0
2017-06-11T01:27:03.222Z,0
2017-06-11T01:28:03.231Z,0
2017-06-11T01:29:03.282Z,0
2017-06-11T01:30:03.311Z,0
2017-06-11T01:31:03.338Z,0
2017-06-11T01:32:03.401Z,0
2017-06-11T01:33:03.437Z,0
2017-06-11T01:34:03.473Z,0
2017-06-11T01:35:03.499Z,0
2017-06-11T01:36:03.523Z,0
2017-06-11T01:37:03.554Z,0
2017-06-11T01:38:03.600Z,0
2017-06-11T01:39:03.624Z,0
2017-06-11T01:40:03.679Z,0
2017-06-11T01:41:03.713Z,0
2017-06-11T01:42:03.751Z,0
2017-06-11T01:43:03.753Z,0
2017-06-11T01:44:03.801Z,0
2017-06-11T01:45:03.852Z,0
2017-06-11T01:46:03.892Z,0
2017-06-11T01:47:03.944Z,0
2017-06-11T01:48:03.914Z,0
2017-06-11T01:49:03.969Z,0
2017-06-11T01:50:04.074Z,0
2017-06-11T01:51:04.040Z,0
2017-06-11T01:52:04.118Z,0
2017-06-11T01:53:04.145Z,0
2017-06-11T01:54:04.144Z,0
2017-06-11T01:55:04.182Z,0
2017-06-11T01:56:04.253Z,0
2017-06-11T01:57:04.240Z,0
2017-06-11T01:58:04.337Z,0
2017-06-11T01:59:04.339Z,0
2017-06-11T02:00:04.387Z,0
2017-06-11T02:01:04.437Z,0
2017-06-11T02:02:04.435Z,0
2017-06-11T02:03:04.471Z,0
2017-06-11T02:04:04.512Z,0
2017-06-11T02:05:04.744Z,0
2017-06-11T02:06:04.595Z,0
2017-06-11T02:07:04.589Z,0
2017-06-11T02:08:04.661Z,0
2017-06-11T02:09:04.686Z,0
2017-06-11T02:10:04.708Z,0
2017-06-11T02:11:04.731Z,0
2017-06-11T02:12:04.776Z,0
2017-06-11T02:13:04.819Z,0
2017-06-11T02:14:04.836Z,0
2017-06-11T02:15:04.898Z,0
2017-06-11T02:16:04.914Z,0
2017-06-11T02:17:04.950Z,0
2017-06-11T02:18:04.981Z,0
2017-06-11T02:19:04.989Z,0
2017-06-11T02:20:05.054Z,0
2017-06-11T02:21:05.090Z,0
2017-06-11T02:22:05.115Z,0
2017-06-11T02:23:05.180Z,0
2017-06-11T02:24:05.185Z,0
2017-06-11T02:25:05.238Z,0
2017-06-11T02:26:05.252Z,0
2017-06-11T02:27:05.286Z,0
2017-06-11T02:28:05.332Z,0
2017-06-11T02:29:05.355Z,0
2017-06-11T02:30:05.385Z,0
2017-06-11T02:31:05.442Z,0
2017-06-11T02:32:05.471Z,0
2017-06-11T02:33:05.502Z,0
2017-06-11T02:34:05.981Z,0
2017-06-11T02:35:06.014Z,0
2017-06-11T02:36:05.584Z,0
2017-06-11T02:37:05.650Z,0
2017-06-11T02:38:05.675Z,5
2017-06-11T02:39:05.681Z,5
2017-06-11T02:40:05.752Z,5
2017-06-11T02:41:05.783Z,5
2017-06-11T02:42:05.787Z,5
2017-06-11T02:43:05.824Z,5
2017-06-11T02:44:05.870Z,5
2017-06-11T02:45:05.906Z,5
2017-06-11T02:46:05.953Z,5
2017-06-11T02:47:06.026Z,5
2017-06-11T02:48:06.021Z,10
2017-06-11T02:49:06.053Z,10
2017-06-11T02:50:06.108Z,10
2017-06-11T02:51:06.124Z,10
2017-06-11T02:52:06.153Z,10
2017-06-11T02:53:06.182Z,10
2017-06-11T02:54:06.224Z,10
2017-06-11T02:55:06.259Z,10
2017-06-11T02:56:06.306Z,15
2017-06-11T02:57:06.323Z,15
2017-06-11T02:58:06.339Z,15
2017-06-11T02:59:06.406Z,15
2017-06-11T03:00:06.423Z,15
2017-06-11T03:01:06.458Z,15
2017-06-11T03:02:06.485Z,15
2017-06-11T03:03:06.523Z,20
2017-06-11T03:04:06.562Z,20
2017-06-11T03:05:06.607Z,20
2017-06-11T03:06:06.689Z,20
2017-06-11T03:07:06.930Z,20
2017-06-11T03:08:06.679Z,20
2017-06-11T03:09:06.760Z,25
2017-06-11T03:10:07.003Z,25
2017-06-11T03:11:06.812Z,25
2017-06-11T03:12:06.841Z,25
2017-06-11T03:13:06.816Z,25
2017-06-11T03:14:06.883Z,25
2017-06-11T03:15:06.977Z,30
2017-06-11T03:16:06.971Z,30
2017-06-11T03:17:06.977Z,30
2017-06-11T03:18:07.035Z,30
2017-06-11T03:19:07.035Z,30
2017-06-11T03:20:07.083Z,30
2017-06-11T03:21:07.131Z,35
2017-06-11T03:22:07.179Z,35
2017-06-11T03:23:07.204Z,35
2017-06-11T03:24:07.246Z,35
2017-06-11T03:25:07.263Z,40
2017-06-11T03:26:07.285Z,40
2017-06-11T03:27:07.354Z,40
2017-06-11T03:28:07.356Z,40
2017-06-11T03:29:07.380Z,45
2017-06-11T03:30:07.436Z,45
2017-06-11T03:31:07.486Z,45
2017-06-11T03:32:07.521Z,50
2017-06-11T03:33:07.553Z,50
2017-06-11T03:34:07.585Z,50
2017-06-11T03:35:07.589Z,55
2017-06-11T03:36:07.652Z,55
2017-06-11T03:37:07.690Z,55
2017-06-11T03:38:07.664Z,60
2017-06-11T03:39:07.759Z,60
2017-06-11T03:40:07.771Z,65
2017-06-11T03:41:07.804Z,65
2017-06-11T03:42:07.857Z,65
2017-06-11T03:43:07.895Z,70
2017-06-11T03:44:07.899Z,75
2017-06-11T03:45:07.944Z,75
2017-06-11T03:46:07.972Z,75
2017-06-11T03:47:08.007Z,80
2017-06-11T03:48:08.035Z,80
2017-06-11T03:49:08.107Z,80
2017-06-11T03:50:08.123Z,80
2017-06-11T03:51:08.145Z,85
2017-06-11T03:52:08.184Z,85
2017-06-11T03:53:08.224Z,90
2017-06-11T03:54:08.276Z,90
2017-06-11T03:55:08.282Z,90
2017-06-11T03:56:08.321Z,95
2017-06-11T03:57:08.374Z,95
2017-06-11T03:58:08.404Z,95
2017-06-11T03:59:08.438Z,100
2017-06-11T04:00:10.243Z,100
2017-06-11T04:01:08.523Z,105
2017-06-11T04:02:08.551Z,105
2017-06-11T04:03:08.584Z,105
2017-06-11T04:04:08.592Z,105
2017-06-11T04:05:08.674Z,110
2017-06-11T04:06:08.729Z,120
2017-06-11T04:07:08.687Z,125
2017-06-11T04:08:08.752Z,140
2017-06-11T04:09:08.781Z,140
2017-06-11T04:10:08.825Z,150
2017-06-11T04:11:08.862Z,170
2017-06-11T04:12:08.899Z,220
2017-06-11T04:13:08.906Z,290
2017-06-11T04:14:08.955Z,365
2017-06-11T04:15:08.990Z,380
2017-06-11T04:16:09.010Z,315
2017-06-11T04:17:09.058Z,310
2017-06-11T04:18:09.088Z,345
2017-06-11T04:19:09.127Z,370
2017-06-11T04:20:09.158Z,350
2017-06-11T04:21:09.207Z,355
2017-06-11T04:22:09.230Z,515
2017-06-11T04:23:09.248Z,740
2017-06-11T04:24:09.301Z,865
2017-06-11T04:25:09.347Z,940
2017-06-11T04:26:09.385Z,1015
2017-06-11T04:27:09.406Z,1070
2017-06-11T04:28:09.444Z,1050
2017-06-11T04:29:09.488Z,880
2017-06-11T04:30:09.511Z,635
2017-06-11T04:31:09.557Z,350
2017-06-11T04:32:09.578Z,270
2017-06-11T04:33:09.653Z,270
2017-06-11T04:34:09.674Z,250
2017-06-11T04:35:09.708Z,260
2017-06-11T04:36:09.705Z,265
2017-06-11T04:37:09.786Z,290
2017-06-11T04:38:09.826Z,255
2017-06-11T04:39:09.852Z,260
2017-06-11T04:40:09.894Z,345
2017-06-11T04:41:09.924Z,465
2017-06-11T04:42:09.962Z,540
2017-06-11T04:43:09.997Z,525
2017-06-11T04:44:10.042Z,700
2017-06-11T04:45:10.095Z,710
2017-06-11T04:46:10.157Z,420
2017-06-11T04:47:10.177Z,325
2017-06-11T04:48:10.218Z,355
2017-06-11T04:49:10.229Z,315
2017-06-11T04:50:10.266Z,310
2017-06-11T04:51:10.263Z,380
2017-06-11T04:52:10.327Z,310
2017-06-11T04:53:10.832Z,305
2017-06-11T04:54:10.755Z,295
2017-06-11T04:55:10.674Z,340
2017-06-11T04:56:10.523Z,375
2017-06-11T04:57:10.577Z,330
2017-06-11T04:58:10.837Z,375
2017-06-11T04:59:10.601Z,425
2017-06-11T05:00:11.140Z,430
2017-06-11T05:01:10.960Z,405
2017-06-11T05:02:10.724Z,310
2017-06-11T05:03:10.855Z,315
2017-06-11T05:04:11.077Z,320
2017-06-11T05:05:10.827Z,340
2017-06-11T05:06:11.236Z,455
2017-06-11T05:07:10.962Z,725
2017-06-11T05:08:11.010Z,535
2017-06-11T05:09:11.458Z,375
2017-06-11T05:10:11.023Z,365
2017-06-11T05:11:11.363Z,345
2017-06-11T05:12:11.153Z,515
2017-06-11T05:13:11.626Z,820
2017-06-11T05:14:11.376Z,840
2017-06-11T05:15:11.512Z,1060
2017-06-11T05:16:11.246Z,1005
2017-06-11T05:17:11.564Z,670
2017-06-11T05:18:11.341Z,470
2017-06-11T05:19:12.018Z,310
2017-06-11T05:20:11.747Z,310
2017-06-11T05:21:11.711Z,285
2017-06-11T05:22:11.752Z,300
2017-06-11T05:23:11.561Z,285
2017-06-11T05:24:11.687Z,310
2017-06-11T05:25:12.366Z,295
2017-06-11T05:26:11.645Z,285
2017-06-11T05:27:11.761Z,300
2017-06-11T05:28:11.689Z,360
2017-06-11T05:29:11.776Z,365
2017-06-11T05:30:12.387Z,350
2017-06-11T05:31:11.927Z,450
2017-06-11T05:32:12.072Z,505
2017-06-11T05:33:11.918Z,550
2017-06-11T05:34:11.930Z,600
2017-06-11T05:35:11.978Z,505
2017-06-11T05:36:12.257Z,470
2017-06-11T05:37:12.574Z,435
2017-06-11T05:38:12.160Z,395
2017-06-11T05:39:12.374Z,330
2017-06-11T05:40:12.182Z,330
2017-06-11T05:41:12.472Z,360
2017-06-11T05:42:12.434Z,470
2017-06-11T05:43:12.273Z,480
2017-06-11T05:44:12.299Z,405
2017-06-11T05:45:12.401Z,395
2017-06-11T05:46:12.432Z,460
2017-06-11T05:47:12.435Z,455
2017-06-11T05:48:12.714Z,430
2017-06-11T05:49:12.564Z,410
2017-06-11T05:50:13.215Z,375
2017-06-11T05:51:12.623Z,345
2017-06-11T05:52:12.911Z,400
2017-06-11T05:53:13.103Z,405
2017-06-11T05:54:12.788Z,365
2017-06-11T05:55:12.832Z,365
2017-06-11T05:56:13.134Z,710
2017-06-11T05:57:13.321Z,735
2017-06-11T05:58:13.141Z,505
2017-06-11T05:59:13.229Z,460
2017-06-11T06:00:14.498Z,575
2017-06-11T06:01:29.275Z,800
2017-06-11T06:02:13.422Z,655
2017-06-11T06:03:13.122Z,520
2017-06-11T06:04:13.091Z,800
2017-06-11T06:05:21.517Z,635
2017-06-11T06:06:13.212Z,645
2017-06-11T06:07:13.214Z,515
2017-06-11T06:08:13.252Z,555
2017-06-11T06:09:13.804Z,690
2017-06-11T06:10:13.618Z,1060
2017-06-11T06:11:13.924Z,790
2017-06-11T06:12:13.555Z,725
2017-06-11T06:13:13.837Z,2045
2017-06-11T06:14:14.437Z,1085
2017-06-11T06:15:14.420Z,870
2017-06-11T06:16:19.041Z,1455
2017-06-11T06:17:14.270Z,1480
2017-06-11T06:18:14.537Z,2105
2017-06-11T06:19:13.968Z,2125
2017-06-11T06:20:14.412Z,2095
2017-06-11T06:21:13.781Z,1720
2017-06-11T06:22:13.838Z,2010
2017-06-11T06:23:13.844Z,2145
2017-06-11T06:24:13.923Z,2245
2017-06-11T06:25:13.938Z,2180
2017-06-11T06:26:13.979Z,2250
2017-06-11T06:27:14.004Z,2270
2017-06-11T06:28:14.258Z,2265
2017-06-11T06:29:14.098Z,2215
2017-06-11T06:30:14.160Z,2300
2017-06-11T06:31:14.181Z,2360
2017-06-11T06:32:14.222Z,2200
2017-06-11T06:33:14.277Z,2110
2017-06-11T06:34:15.313Z,2275
2017-06-11T06:35:15.476Z,2355
2017-06-11T06:36:14.409Z,2340
2017-06-11T06:37:14.450Z,2405
2017-06-11T06:38:14.493Z,2325
2017-06-11T06:39:14.794Z,2325
2017-06-11T06:40:14.728Z,2330
2017-06-11T06:41:14.666Z,2360
2017-06-11T06:42:14.653Z,2405
2017-06-11T06:43:14.722Z,2365
2017-06-11T06:44:14.758Z,2440
2017-06-11T06:45:14.780Z,2450
2017-06-11T06:46:14.838Z,2415
2017-06-11T06:47:15.517Z,2465
2017-06-11T06:48:14.937Z,2420
2017-06-11T06:49:15.002Z,2390
2017-06-11T06:50:15.042Z,2430
2017-06-11T06:51:15.064Z,2410
2017-06-11T06:52:15.122Z,2415
2017-06-11T06:53:15.370Z,2500
2017-06-11T06:54:15.202Z,2495
2017-06-11T06:55:15.255Z,2425
2017-06-11T06:56:15.288Z,2410
2017-06-11T06:57:15.328Z,2175
2017-06-11T06:58:15.595Z,2260
2017-06-11T06:59:15.469Z,2300
2017-06-11T07:00:15.698Z,2340
2017-06-11T07:01:15.541Z,2375
2017-06-11T07:02:15.597Z,2325
2017-06-11T07:03:15.629Z,2365
2017-06-11T07:04:15.677Z,2345
2017-06-11T07:05:15.744Z,2355
2017-06-11T07:06:15.762Z,2545
2017-06-11T07:07:15.825Z,2540
2017-06-11T07:08:15.896Z,2490
2017-06-11T07:09:15.910Z,2425
2017-06-11T07:10:15.951Z,2250
2017-06-11T07:11:15.977Z,2315
2017-06-11T07:12:16.051Z,2380
2017-06-11T07:13:16.095Z,2400
2017-06-11T07:14:16.125Z,2560
2017-06-11T07:15:16.201Z,2545
2017-06-11T07:16:16.233Z,2550
2017-06-11T07:17:16.459Z,2560
2017-06-11T07:18:16.330Z,2495
2017-06-11T07:19:16.375Z,2520
2017-06-11T07:20:16.659Z,2650
2017-06-11T07:21:16.689Z,2595
2017-06-11T07:22:16.522Z,2650
2017-06-11T07:23:16.568Z,2680
2017-06-11T07:24:16.588Z,2650
2017-06-11T07:25:16.667Z,2575
2017-06-11T07:26:16.703Z,2575
2017-06-11T07:27:16.764Z,2645
2017-06-11T07:28:17.245Z,2535
2017-06-11T07:29:16.853Z,2535
2017-06-11T07:30:16.905Z,2610
2017-06-11T07:31:16.920Z,2630
2017-06-11T07:32:16.993Z,2525
2017-06-11T07:33:17.105Z,2335
2017-06-11T07:34:17.279Z,2360
2017-06-11T07:35:17.358Z,2285
2017-06-11T07:36:17.187Z,2470
2017-06-11T07:37:17.205Z,2535
2017-06-11T07:38:17.287Z,2655
2017-06-11T07:39:17.334Z,2665
2017-06-11T07:40:17.597Z,2655
2017-06-11T07:41:17.437Z,2630
2017-06-11T07:42:17.472Z,2740
2017-06-11T07:43:17.532Z,2830
2017-06-11T07:44:17.575Z,2635
2017-06-11T07:45:17.633Z,2455
2017-06-11T07:46:17.674Z,2375
2017-06-11T07:47:17.718Z,2485
2017-06-11T07:48:18.000Z,2735
2017-06-11T07:49:17.835Z,2755
2017-06-11T07:50:17.963Z,2730
2017-06-11T07:51:17.940Z,2750
2017-06-11T07:52:17.981Z,2755
2017-06-11T07:53:18.023Z,2620
2017-06-11T07:54:18.079Z,2470
2017-06-11T07:55:18.319Z,2630
2017-06-11T07:56:18.181Z,2695
2017-06-11T07:57:18.204Z,2800
2017-06-11T07:58:18.470Z,2890
2017-06-11T07:59:18.315Z,2865
2017-06-11T08:00:19.587Z,2715
2017-06-11T08:01:18.415Z,2660
2017-06-11T08:02:18.456Z,2585
2017-06-11T08:03:18.487Z,2785
2017-06-11T08:04:18.561Z,2890
2017-06-11T08:05:18.647Z,2865
2017-06-11T08:06:18.673Z,2950
2017-06-11T08:07:18.709Z,2960
2017-06-11T08:08:19.010Z,2860
2017-06-11T08:09:18.798Z,2815
2017-06-11T08:10:18.856Z,2750
2017-06-11T08:11:19.165Z,2770
2017-06-11T08:12:18.967Z,2815
2017-06-11T08:13:19.006Z,2800
2017-06-11T08:14:19.060Z,2875
2017-06-11T08:15:19.098Z,2925
2017-06-11T08:16:19.141Z,2770
2017-06-11T08:17:19.205Z,2620
2017-06-11T08:18:19.257Z,2830
2017-06-11T08:19:19.297Z,2825
2017-06-11T08:20:19.690Z,2615
2017-06-11T08:21:19.409Z,2855
2017-06-11T08:22:19.435Z,2835
2017-06-11T08:23:19.477Z,2985
2017-06-11T08:24:19.538Z,2955
2017-06-11T08:25:19.597Z,2880
2017-06-11T08:26:19.654Z,2880
2017-06-11T08:27:19.704Z,2715
2017-06-11T08:28:19.730Z,2735
2017-06-11T08:29:19.798Z,3000
2017-06-11T08:30:19.851Z,3220
2017-06-11T08:31:19.913Z,3300
2017-06-11T08:32:19.969Z,3125
2017-06-11T08:33:20.002Z,3100
2017-06-11T08:34:20.059Z,3270
2017-06-11T08:35:20.123Z,3515
2017-06-11T08:36:20.164Z,3450
2017-06-11T08:37:20.218Z,2685
2017-06-11T08:38:20.254Z,2510
2017-06-11T08:39:20.295Z,2935
2017-06-11T08:40:20.372Z,2845
2017-06-11T08:41:20.396Z,3060
2017-06-11T08:42:20.468Z,3390
2017-06-11T08:43:20.513Z,3715
2017-06-11T08:44:20.563Z,3795
2017-06-11T08:45:20.652Z,3760
2017-06-11T08:46:20.672Z,3900
2017-06-11T08:47:20.713Z,3775
2017-06-11T08:48:20.745Z,3675
2017-06-11T08:49:20.822Z,3615
2017-06-11T08:50:20.850Z,3410
2017-06-11T08:51:20.901Z,3405
2017-06-11T08:52:20.964Z,3370
2017-06-11T08:53:21.011Z,3545
2017-06-11T08:54:21.079Z,3705
2017-06-11T08:55:21.244Z,3800
2017-06-11T08:56:21.189Z,3685
2017-06-11T08:57:21.222Z,3790
2017-06-11T08:58:21.297Z,3770
2017-06-11T08:59:21.359Z,4175
2017-06-11T09:00:21.605Z,4155
2017-06-11T09:01:21.426Z,3955
2017-06-11T09:02:21.463Z,3800
2017-06-11T09:03:21.526Z,3735
2017-06-11T09:04:21.642Z,3815
2017-06-11T09:05:21.652Z,4035
2017-06-11T09:06:21.700Z,3950
2017-06-11T09:07:21.730Z,3570
2017-06-11T09:08:22.006Z,3030
2017-06-11T09:09:21.805Z,3155
2017-06-11T09:10:21.921Z,3290
2017-06-11T09:11:21.962Z,2770
2017-06-11T09:12:22.027Z,2880
2017-06-11T09:13:22.073Z,3420
2017-06-11T09:14:22.134Z,3035
2017-06-11T09:15:22.173Z,2965
2017-06-11T09:16:22.206Z,3000
2017-06-11T09:17:22.266Z,2970
2017-06-11T09:18:22.318Z,3070
2017-06-11T09:19:22.352Z,3125
2017-06-11T09:20:22.429Z,2870
2017-06-11T09:21:22.479Z,3080
2017-06-11T09:22:22.541Z,3180
2017-06-11T09:23:22.600Z,3250
2017-06-11T09:24:22.617Z,2965
2017-06-11T09:25:22.709Z,2755
2017-06-11T09:26:22.737Z,2300
2017-06-11T09:27:22.810Z,2510
2017-06-11T09:28:22.864Z,2485
2017-06-11T09:29:22.904Z,2560
2017-06-11T09:30:22.956Z,2205
2017-06-11T09:31:22.998Z,1785
2017-06-11T09:32:23.073Z,1550
2017-06-11T09:33:23.171Z,1550
2017-06-11T09:34:23.183Z,1560
2017-06-11T09:35:23.209Z,1760
2017-06-11T09:36:23.285Z,1755
2017-06-11T09:37:23.345Z,1755
2017-06-11T09:38:23.385Z,1915
2017-06-11T09:39:23.442Z,1975
2017-06-11T09:40:23.503Z,2070
2017-06-11T09:41:23.550Z,2160
2017-06-11T09:42:23.607Z,2030
2017-06-11T09:43:23.670Z,1885
2017-06-11T09:44:23.705Z,2060
2017-06-11T09:45:23.774Z,2050
2017-06-11T09:46:23.825Z,2110
2017-06-11T09:47:23.879Z,2385
2017-06-11T09:48:23.912Z,2390
2017-06-11T09:49:23.988Z,2265
2017-06-11T09:50:24.024Z,2450
2017-06-11T09:51:24.073Z,2825
2017-06-11T09:52:24.127Z,2940
2017-06-11T09:53:24.174Z,2825
2017-06-11T09:54:24.244Z,2970
2017-06-11T09:55:24.292Z,3045
2017-06-11T09:56:24.343Z,3010
2017-06-11T09:57:24.407Z,2825
2017-06-11T09:58:24.472Z,2220
2017-06-11T09:59:24.524Z,2020
2017-06-11T10:00:25.762Z,1910
2017-06-11T10:01:24.616Z,2220
2017-06-11T10:02:24.677Z,2750
2017-06-11T10:03:24.737Z,2735
2017-06-11T10:04:24.784Z,3155
2017-06-11T10:05:24.851Z,3170
2017-06-11T10:06:24.880Z,3155
2017-06-11T10:07:24.940Z,3310
2017-06-11T10:08:25.009Z,3395
2017-06-11T10:09:25.073Z,3415
2017-06-11T10:10:25.117Z,3245
2017-06-11T10:11:25.168Z,3040
2017-06-11T10:12:25.216Z,2990
2017-06-11T10:13:25.280Z,2575
2017-06-11T10:14:25.313Z,2705
2017-06-11T10:15:25.378Z,2610
2017-06-11T10:16:25.436Z,2440
2017-06-11T10:17:25.492Z,2550
2017-06-11T10:18:25.538Z,2635
2017-06-11T10:19:25.600Z,2760
2017-06-11T10:20:25.635Z,3290
2017-06-11T10:21:25.688Z,3110
2017-06-11T10:22:25.732Z,2975
2017-06-11T10:23:25.783Z,2915
2017-06-11T10:24:25.895Z,2805
2017-06-11T10:25:25.881Z,2570
2017-06-11T10:26:25.948Z,2605
2017-06-11T10:27:26.010Z,2775
2017-06-11T10:28:26.019Z,3105
2017-06-11T10:29:26.078Z,3170
2017-06-11T10:30:26.132Z,3215
2017-06-11T10:31:26.201Z,2995
2017-06-11T10:32:26.278Z,2690
2017-06-11T10:33:26.302Z,2510
2017-06-11T10:34:26.300Z,2465
2017-06-11T10:35:26.406Z,2400
2017-06-11T10:36:26.451Z,2475
2017-06-11T10:37:26.479Z,2285
2017-06-11T10:38:26.531Z,2230
2017-06-11T10:39:26.579Z,2110
2017-06-11T10:40:26.631Z,2110
2017-06-11T10:41:26.708Z,2055
2017-06-11T10:42:26.713Z,2020
2017-06-11T10:43:26.778Z,2145
2017-06-11T10:44:26.825Z,1985
2017-06-11T10:45:26.883Z,1945
2017-06-11T10:46:26.918Z,2110
2017-06-11T10:47:26.973Z,2020
2017-06-11T10:48:27.032Z,2225
2017-06-11T10:49:27.068Z,2310
2017-06-11T10:50:27.105Z,2570
2017-06-11T10:51:27.149Z,2620
2017-06-11T10:52:27.198Z,1910
2017-06-11T10:53:27.223Z,2395
2017-06-11T10:54:27.281Z,2525
2017-06-11T10:55:27.314Z,2625
2017-06-11T10:56:27.378Z,2410
2017-06-11T10:57:27.367Z,2495
2017-06-11T10:58:27.484Z,2890
2017-06-11T10:59:27.515Z,2780
2017-06-11T11:00:27.548Z,2610
2017-06-11T11:01:27.610Z,2220
2017-06-11T11:02:27.656Z,1725
2017-06-11T11:03:27.704Z,1415
2017-06-11T11:04:27.749Z,1700
2017-06-11T11:05:27.802Z,1810
2017-06-11T11:06:27.818Z,1115
2017-06-11T11:07:27.869Z,565
2017-06-11T11:08:27.893Z,495
2017-06-11T11:09:27.952Z,475
2017-06-11T11:10:28.029Z,455
2017-06-11T11:11:28.064Z,425
2017-06-11T11:12:28.100Z,405
2017-06-11T11:13:28.144Z,395
2017-06-11T11:14:28.194Z,370
2017-06-11T11:15:28.227Z,370
2017-06-11T11:16:28.274Z,365
2017-06-11T11:17:28.319Z,350
2017-06-11T11:18:28.364Z,340
2017-06-11T11:19:28.419Z,330
2017-06-11T11:20:28.448Z,325
2017-06-11T11:21:28.479Z,325
2017-06-11T11:22:28.505Z,310
2017-06-11T11:23:28.584Z,310
2017-06-11T11:24:28.620Z,315
2017-06-11T11:25:28.643Z,315
2017-06-11T11:26:28.707Z,315
2017-06-11T11:27:28.754Z,325
2017-06-11T11:28:28.784Z,330
2017-06-11T11:29:28.855Z,325
2017-06-11T11:30:28.901Z,330
2017-06-11T11:31:28.920Z,340
2017-06-11T11:32:28.958Z,345
2017-06-11T11:33:28.994Z,350
2017-06-11T11:34:29.053Z,360
2017-06-11T11:35:29.100Z,375
2017-06-11T11:36:29.136Z,370
2017-06-11T11:37:29.176Z,355
2017-06-11T11:38:29.222Z,340
2017-06-11T11:39:29.272Z,335
2017-06-11T11:40:29.314Z,320
2017-06-11T11:41:29.344Z,305
2017-06-11T11:42:29.382Z,300
2017-06-11T11:43:29.438Z,310
2017-06-11T11:44:29.473Z,305
2017-06-11T11:45:29.518Z,300
2017-06-11T11:46:29.547Z,300
2017-06-11T11:47:29.615Z,290
2017-06-11T11:48:29.585Z,285
2017-06-11T11:49:29.684Z,275
2017-06-11T11:50:29.733Z,265
2017-06-11T11:51:29.763Z,260
2017-06-11T11:52:29.818Z,255
2017-06-11T11:53:29.830Z,250
2017-06-11T11:54:29.885Z,250
2017-06-11T11:55:29.934Z,245
2017-06-11T11:56:29.976Z,245
2017-06-11T11:57:30.006Z,235
2017-06-11T11:58:30.073Z,235
2017-06-11T11:59:30.106Z,235
2017-06-11T12:00:30.149Z,235
2017-06-11T12:01:30.186Z,230
2017-06-11T12:02:30.212Z,230
2017-06-11T12:03:30.267Z,235
2017-06-11T12:04:30.315Z,225
2017-06-11T12:05:30.346Z,225
2017-06-11T12:06:30.382Z,250
2017-06-11T12:07:30.435Z,260
2017-06-11T12:08:30.469Z,265
2017-06-11T12:09:30.513Z,265
2017-06-11T12:10:30.569Z,265
2017-06-11T12:11:30.606Z,260
2017-06-11T12:12:30.657Z,255
2017-06-11T12:13:30.671Z,240
2017-06-11T12:14:30.731Z,240
2017-06-11T12:15:30.783Z,240
2017-06-11T12:16:30.815Z,240
2017-06-11T12:17:30.853Z,240
2017-06-11T12:18:30.887Z,240
2017-06-11T12:19:30.941Z,235
2017-06-11T12:20:30.974Z,225
2017-06-11T12:21:31.045Z,225
2017-06-11T12:22:31.069Z,220
2017-06-11T12:23:31.110Z,220
2017-06-11T12:24:31.154Z,215
2017-06-11T12:25:31.182Z,210
2017-06-11T12:26:31.183Z,205
2017-06-11T12:27:31.272Z,205
2017-06-11T12:28:31.293Z,205
2017-06-11T12:29:31.354Z,205
2017-06-11T12:30:31.401Z,205
2017-06-11T12:31:31.413Z,215
2017-06-11T12:32:31.472Z,220
2017-06-11T12:33:31.519Z,215
2017-06-11T12:34:31.543Z,210
2017-06-11T12:35:31.605Z,215
2017-06-11T12:36:31.637Z,210
2017-06-11T12:37:31.672Z,215
2017-06-11T12:38:31.711Z,215
2017-06-11T12:39:31.770Z,225
2017-06-11T12:40:31.804Z,225
2017-06-11T12:41:31.843Z,225
2017-06-11T12:42:31.899Z,215
2017-06-11T12:43:31.909Z,205
2017-06-11T12:44:31.977Z,205
2017-06-11T12:45:32.025Z,205
2017-06-11T12:46:32.043Z,210
2017-06-11T12:47:32.108Z,200
2017-06-11T12:48:32.147Z,205
2017-06-11T12:49:32.172Z,195
2017-06-11T12:50:32.224Z,195
2017-06-11T12:51:32.271Z,195
2017-06-11T12:52:32.292Z,200
2017-06-11T12:53:32.343Z,205
2017-06-11T12:54:32.395Z,200
2017-06-11T12:55:32.401Z,195
2017-06-11T12:56:32.472Z,195
2017-06-11T12:57:32.507Z,190
2017-06-11T12:58:32.499Z,190
2017-06-11T12:59:32.595Z,185
2017-06-11T13:00:32.628Z,180
2017-06-11T13:01:32.670Z,180
2017-06-11T13:02:32.700Z,175
2017-06-11T13:03:32.762Z,180
2017-06-11T13:04:32.800Z,175
2017-06-11T13:05:32.863Z,180
2017-06-11T13:06:32.876Z,180
2017-06-11T13:07:32.897Z,175
2017-06-11T13:08:32.971Z,175
2017-06-11T13:09:33.003Z,175
2017-06-11T13:10:33.044Z,170
2017-06-11T13:11:33.096Z,175
2017-06-11T13:12:33.121Z,175
2017-06-11T13:13:33.144Z,175
2017-06-11T13:14:33.196Z,175
2017-06-11T13:15:33.246Z,175
2017-06-11T13:16:33.276Z,170
2017-06-11T13:17:33.299Z,170
2017-06-11T13:18:33.362Z,170
2017-06-11T13:19:33.405Z,170
2017-06-11T13:20:33.435Z,170
2017-06-11T13:21:33.478Z,170
2017-06-11T13:22:33.514Z,170
2017-06-11T13:23:33.577Z,165
2017-06-11T13:24:33.615Z,165
2017-06-11T13:25:33.648Z,170
2017-06-11T13:26:33.681Z,165
2017-06-11T13:27:33.721Z,165
2017-06-11T13:28:33.774Z,160
2017-06-11T13:29:33.848Z,160
2017-06-11T13:30:33.866Z,160
2017-06-11T13:31:33.903Z,160
2017-06-11T13:32:33.948Z,160
2017-06-11T13:33:33.980Z,160
2017-06-11T13:34:34.015Z,160
2017-06-11T13:35:34.074Z,160
2017-06-11T13:36:34.110Z,160
2017-06-11T13:37:34.131Z,160
2017-06-11T13:38:34.171Z,160
2017-06-11T13:39:34.211Z,160
2017-06-11T13:40:34.299Z,165
2017-06-11T13:41:34.318Z,160
2017-06-11T13:42:34.351Z,160
2017-06-11T13:43:34.387Z,160
2017-06-11T13:44:34.476Z,160
2017-06-11T13:45:34.465Z,160
2017-06-11T13:46:34.514Z,155
2017-06-11T13:47:34.555Z,155
2017-06-11T13:48:34.594Z,155
2017-06-11T13:49:34.664Z,155